Airfield :
LOGIN :

Register | Disclaimer

   EN    FR    IT 

 










Legend :    VFR   Marginal VFR   IFR   Intensive IFR   Very Intensive IFR
Visi :
Ceiling :
>= 8 km
>= 3000ft
5 to 8 km
1000 to 3000 ft
1500m to 5 km
500 to 1000 ft
800 to 1500m
200 to 500 ft
< 800m
< 200 ft
Symbols :   Thunderstorms  Fog  Heavy snow  Heavy precipitations  Wind > 20 kt
SIGMETs :     Misc.  Thunderstorms  Icing  Turbulence  Mountain Waves  Volcanic Ashes






- Airport Elevation : 396 ft


LFOZ - Orléans St Denis

CURRENT METAR :
  • 041130Z AUTO 25003KT 160V300 9999 SCT048 23/12 Q1022

EXPIRED METARs :
  • 041100Z AUTO 02003KT 330V050 9999 FEW043 23/12 Q1022
  • 041030Z AUTO 18004KT 140V250 CAVOK 22/12 Q1022
  • 041000Z AUTO 13003KT 080V170 CAVOK 22/12 Q1022
  • 040930Z AUTO 06004KT 010V120 CAVOK 21/11 Q1022
  • 040900Z AUTO 36005KT 330V070 CAVOK 20/12 Q1022

TAF N/A



MET'MAP, your aeronautical weather chart ! - Copyright ORBIFLY December 2007 - Disclaimer

ORBIFLY MET'MAP TEAM :

Programming & Development : Alexandra Zaïnal
Original concept : Baudouin d'Aumeries
Technical & hardware support : Manuel Goepfert
Assistance : Marc-Olivier Méhu




SOURCES & CREDITS :

   NOAA